Time;durP1;ratioP1;P1;durP2;ratioP2;P2;SDS_P1;SDS_P2;PMS_P1;PMS_P2;Temp;Humidity;BMP_temperature;BMP_pressure;BME280_temperature;BME280_humidity;BME280_pressure;Samples;Min_cycle;Max_cycle;Signal;HPM_P1;HPM_P2
2023/10/11 00:01:22;;;;;;;37.30;24.33;;;;;;;22.09;nan;98462.50;5047552;28;20052;-65
2023/10/11 00:03:52;;;;;;;32.83;23.45;;;;;;;21.91;nan;98471.94;5044442;28;20056;-65
2023/10/11 00:06:24;;;;;;;36.42;24.33;;;;;;;22.13;nan;98476.28;5045306;28;20049;-65
2023/10/11 00:08:54;;;;;;;36.08;25.67;;;;;;;22.16;nan;98473.84;5048364;28;20068;-65
2023/10/11 00:11:27;;;;;;;35.50;23.27;;;;;;;22.11;nan;98475.75;5047876;28;20049;-65
2023/10/11 00:13:56;;;;;;;34.17;25.02;;;;;;;22.03;nan;98474.41;5048279;28;20057;-65
2023/10/11 00:16:31;;;;;;;32.72;24.00;;;;;;;22.10;nan;98480.31;5047855;28;20060;-65
2023/10/11 00:19:01;;;;;;;34.72;26.77;;;;;;;21.86;nan;98484.66;5048339;28;20048;-65
2023/10/11 00:21:43;;;;;;;32.10;24.05;;;;;;;21.75;nan;98488.41;5048042;28;20126;-65
2023/10/11 00:24:13;;;;;;;36.47;25.60;;;;;;;21.56;nan;98492.72;5047603;28;20484;-65
2023/10/11 00:26:44;;;;;;;36.97;24.60;;;;;;;21.33;nan;98492.13;5048377;28;20071;-65
2023/10/11 00:29:13;;;;;;;39.65;25.48;;;;;;;21.15;nan;98495.38;5044380;28;20139;-65
2023/10/11 00:31:45;;;;;;;37.80;24.77;;;;;;;21.43;nan;98500.25;5030721;28;20053;-65
2023/10/11 00:34:16;;;;;;;35.25;24.00;;;;;;;21.67;nan;98510.53;5030645;28;20049;-65
2023/10/11 00:36:49;;;;;;;32.10;24.77;;;;;;;21.66;nan;98508.91;5043528;28;20540;-65
2023/10/11 00:39:19;;;;;;;33.08;23.83;;;;;;;21.68;nan;98510.25;5035974;28;20060;-65
2023/10/11 00:41:49;;;;;;;40.42;25.13;;;;;;;21.66;nan;98514.28;5046454;28;20075;-66
2023/10/11 00:44:20;;;;;;;36.88;24.65;;;;;;;21.55;nan;98512.69;5046268;28;20048;-65
2023/10/11 00:46:57;;;;;;;31.77;23.45;;;;;;;21.34;nan;98512.63;5044813;28;20052;-65
2023/10/11 00:49:39;;;;;;;37.83;24.30;;;;;;;21.54;nan;98519.13;5046968;28;20372;-65
2023/10/11 00:52:09;;;;;;;41.72;23.70;;;;;;;21.71;nan;98523.19;5043365;28;20053;-65
2023/10/11 00:54:43;;;;;;;41.17;24.58;;;;;;;21.70;nan;98515.38;5041888;28;20551;-65
2023/10/11 00:57:15;;;;;;;41.38;24.33;;;;;;;21.64;nan;98527.25;5046048;28;20543;-65
2023/10/11 00:59:45;;;;;;;40.00;25.60;;;;;;;21.51;nan;98534.75;5045849;28;20539;-65
2023/10/11 01:02:15;;;;;;;41.60;26.85;;;;;;;21.74;nan;98530.72;5046282;28;20140;-65
2023/10/11 01:04:45;;;;;;;42.35;25.38;;;;;;;21.77;nan;98534.81;5046088;28;20041;-65
2023/10/11 01:07:15;;;;;;;43.15;27.75;;;;;;;21.94;nan;98536.19;5046489;28;20053;-65
2023/10/11 01:09:44;;;;;;;46.13;28.60;;;;;;;21.97;nan;98531.31;5045980;28;20160;-66
2023/10/11 01:12:13;;;;;;;43.67;27.00;;;;;;;21.86;nan;98523.19;5043275;28;20110;-65
2023/10/11 01:14:57;;;;;;;50.10;28.73;;;;;;;21.55;nan;98531.53;5046291;28;20065;-66
2023/10/11 01:17:30;;;;;;;55.05;29.45;;;;;;;21.68;nan;98529.13;5044723;28;20056;-66
2023/10/11 01:19:59;;;;;;;;;;;;;;;21.60;nan;98534.25;5046302;28;20099;-66
2023/10/11 01:22:29;;;;;;;46.15;27.38;;;;;;;21.79;nan;98530.75;5046292;28;19935;-65
2023/10/11 01:25:00;;;;;;;49.08;27.35;;;;;;;21.89;nan;98540.72;5045743;28;20153;-66
2023/10/11 01:27:30;;;;;;;43.17;26.80;;;;;;;21.81;nan;98530.47;5046447;28;20056;-65
2023/10/11 01:29:59;;;;;;;50.50;26.90;;;;;;;21.81;nan;98533.19;5045841;28;20048;-64
2023/10/11 01:32:37;;;;;;;41.35;25.95;;;;;;;21.89;nan;98538.03;5046282;28;20066;-65
2023/10/11 01:35:36;;;;;;;49.45;29.15;;;;;;;21.97;nan;98542.91;5045176;28;20048;-64
2023/10/11 01:37:58;;;;;;;37.85;27.35;;;;;;;21.90;nan;98539.66;5037419;28;20149;-62
2023/10/11 01:40:31;;;;;;;40.85;27.08;;;;;;;21.95;nan;98545.09;5033713;28;20095;-65
2023/10/11 01:43:03;;;;;;;51.08;25.40;;;;;;;21.97;nan;98542.91;5044701;28;20130;-64
2023/10/11 01:45:33;;;;;;;43.25;25.50;;;;;;;22.04;nan;98548.06;5037989;28;20045;-64
2023/10/11 01:48:03;;;;;;;45.33;27.77;;;;;;;22.13;nan;98557.22;5043058;28;20037;-64
2023/10/11 01:50:37;;;;;;;44.10;25.75;;;;;;;22.10;nan;98553.16;5046802;28;20049;-65
2023/10/11 01:53:08;;;;;;;;;;;;;;;22.02;nan;98551.00;5046515;28;20041;-65
2023/10/11 01:55:39;;;;;;;43.30;26.15;;;;;;;22.27;nan;98560.97;5045847;28;19982;-65
2023/10/11 01:58:12;;;;;;;39.20;24.08;;;;;;;22.23;nan;98568.78;5042709;28;20083;-65
2023/10/11 02:00:43;;;;;;;42.05;24.45;;;;;;;22.41;nan;98567.44;5024167;28;20045;-65
2023/10/11 02:03:13;;;;;;;47.95;24.38;;;;;;;22.24;nan;98566.91;5040923;28;20099;-65
2023/10/11 02:05:43;;;;;;;48.90;24.70;;;;;;;22.23;nan;98574.19;5046216;28;20045;-65
2023/10/11 02:08:17;;;;;;;40.13;23.35;;;;;;;22.46;nan;98577.41;5044145;28;20063;-62
2023/10/11 02:10:46;;;;;;;48.35;23.27;;;;;;;22.52;nan;98582.53;5041154;28;20055;-65
2023/10/11 02:13:15;;;;;;;39.53;23.17;;;;;;;22.81;nan;98585.47;5044174;28;20162;-65
2023/10/11 02:15:47;;;;;;;48.65;21.55;;;;;;;22.89;nan;98579.50;5034734;28;20041;-64
2023/10/11 02:18:17;;;;;;;39.88;22.65;;;;;;;23.12;nan;98586.97;5048835;28;20052;-64
2023/10/11 02:20:46;;;;;;;41.22;20.85;;;;;;;23.13;nan;98596.72;5045043;28;20152;-64
2023/10/11 02:23:17;;;;;;;38.28;19.10;;;;;;;23.23;nan;98593.94;5039968;28;20073;-65
2023/10/11 02:25:47;;;;;;;30.52;19.90;;;;;;;23.41;nan;98602.53;5042213;28;20059;-65
2023/10/11 02:28:18;;;;;;;34.78;19.67;;;;;;;23.52;nan;98604.13;5040306;28;20057;-65
2023/10/11 02:30:49;;;;;;;30.27;20.00;;;;;;;23.55;nan;98608.97;5045858;28;20138;-65
2023/10/11 02:33:20;;;;;;;35.70;18.85;;;;;;;23.76;nan;98607.78;5040826;28;20880;-65
2023/10/11 02:35:55;;;;;;;45.38;21.67;;;;;;;23.96;nan;98614.94;5037766;28;20056;-64
2023/10/11 02:38:25;;;;;;;30.45;18.08;;;;;;;24.03;nan;98613.50;5042581;28;20053;-65
2023/10/11 02:40:57;;;;;;;37.63;18.15;;;;;;;24.08;nan;98624.31;5044396;28;20063;-65
2023/10/11 02:43:28;;;;;;;39.25;18.52;;;;;;;24.24;nan;98624.25;5044855;28;20053;-65
2023/10/11 02:45:59;;;;;;;30.92;18.40;;;;;;;24.28;nan;98622.56;5044169;28;20041;-65
2023/10/11 02:48:29;;;;;;;24.90;16.45;;;;;;;24.30;nan;98623.91;5043704;28;20060;-65
2023/10/11 02:51:09;;;;;;;29.33;16.95;;;;;;;24.47;nan;98628.91;5044549;28;20053;-65
2023/10/11 02:53:38;;;;;;;31.60;16.58;;;;;;;24.36;nan;98628.19;5042833;28;20110;-65
2023/10/11 02:56:09;;;;;;;24.83;15.95;;;;;;;24.29;nan;98625.00;5045365;28;20056;-64
2023/10/11 02:58:41;;;;;;;26.90;15.95;;;;;;;24.39;nan;98629.50;5028370;28;20048;-65
2023/10/11 03:01:22;;;;;;;25.15;16.38;;;;;;;24.47;nan;98642.47;5045356;28;20048;-65
2023/10/11 03:03:52;;;;;;;26.75;16.00;;;;;;;24.50;nan;98644.59;5043241;28;20166;-65
2023/10/11 03:06:27;;;;;;;22.75;15.20;;;;;;;24.61;nan;98646.91;5033205;28;20061;-65
2023/10/11 03:08:56;;;;;;;32.70;16.05;;;;;;;24.69;nan;98648.22;5039258;28;20103;-65
2023/10/11 03:11:29;;;;;;;24.48;16.15;;;;;;;24.65;nan;98652.56;5045394;28;20114;-65
2023/10/11 03:14:04;;;;;;;;;;;;;;;24.85;nan;98652.38;5040962;28;20057;-65
2023/10/11 03:16:33;;;;;;;26.75;17.25;;;;;;;24.88;nan;98656.44;5027387;28;20021;-65
2023/10/11 03:19:05;;;;;;;26.98;16.67;;;;;;;24.96;nan;98664.75;5040203;28;20119;-64
2023/10/11 03:21:34;;;;;;;31.35;17.48;;;;;;;25.03;nan;98667.13;5044285;28;20128;-64
2023/10/11 03:24:05;;;;;;;31.90;17.95;;;;;;;24.89;nan;98666.19;5044518;28;20068;-64
2023/10/11 03:26:38;;;;;;;34.28;16.58;;;;;;;25.19;nan;98667.75;5044735;28;20053;-65
2023/10/11 03:29:17;;;;;;;26.38;18.10;;;;;;;25.22;nan;98673.44;5044751;28;20486;-64
2023/10/11 03:31:48;;;;;;;26.30;16.77;;;;;;;25.50;nan;98674.44;5045594;28;20517;-64
2023/10/11 03:34:20;;;;;;;30.58;17.00;;;;;;;25.54;nan;98675.50;5045164;28;20535;-64
2023/10/11 03:36:52;;;;;;;27.35;16.42;;;;;;;26.03;nan;98674.31;5045997;28;20078;-65
2023/10/11 03:42:07;;;;;;;25.63;15.88;;;;;;;26.55;nan;98687.69;5048456;28;20052;-65
2023/10/11 03:44:40;;;;;;;31.58;16.70;;;;;;;26.44;nan;98682.69;5048613;28;20059;-65
2023/10/11 03:47:09;;;;;;;23.05;16.00;;;;;;;26.47;nan;98688.31;5043117;28;20053;-64
2023/10/11 03:52:19;;;;;;;29.33;15.67;;;;;;;26.57;nan;98687.34;5047013;28;20419;-64
2023/10/11 03:55:10;;;;;;;28.13;16.02;;;;;;;26.78;nan;98696.78;5048068;28;20044;-65
2023/10/11 03:57:44;;;;;;;29.83;15.88;;;;;;;27.12;nan;98705.47;5047857;28;20444;-65
2023/10/11 04:02:58;;;;;;;21.02;15.00;;;;;;;27.61;nan;98706.72;5048772;28;20058;-64
2023/10/11 04:05:33;;;;;;;24.02;15.13;;;;;;;28.02;nan;98714.81;5048079;28;20115;-65
2023/10/11 04:08:12;;;;;;;28.42;15.32;;;;;;;28.29;nan;98722.94;5041854;28;20041;-65
2023/10/11 04:10:46;;;;;;;38.78;16.13;;;;;;;28.85;nan;98714.28;5046644;28;20354;-64
2023/10/11 04:13:15;;;;;;;25.02;16.48;;;;;;;29.34;nan;98720.66;5047423;28;20056;-64
2023/10/11 04:15:51;;;;;;;30.15;16.80;;;;;;;29.76;nan;98719.97;5047134;28;20059;-64
2023/10/11 04:18:33;;;;;;;32.30;19.60;;;;;;;30.06;nan;98721.03;5042062;28;20045;-65
2023/10/11 04:23:55;;;;;;;42.97;23.40;;;;;;;29.75;nan;98717.56;5024762;28;20103;-65
2023/10/11 04:29:15;;;;;;;35.95;23.92;;;;;;;30.03;nan;98724.41;5044051;28;20040;-66
2023/10/11 04:32:04;;;;;;;51.03;26.60;;;;;;;30.05;nan;98719.41;5046812;28;20049;-67
2023/10/11 04:34:38;;;;;;;37.70;25.75;;;;;;;30.53;nan;98723.97;5041353;28;20068;-66
2023/10/11 04:37:16;;;;;;;40.72;24.65;;;;;;;30.89;nan;98724.41;5045073;28;20045;-66
2023/10/11 04:39:56;;;;;;;41.13;25.90;;;;;;;30.81;nan;98727.94;5044856;28;20059;-67
2023/10/11 04:42:29;;;;;;;45.20;26.70;;;;;;;31.30;nan;98729.31;5043380;28;20386;-66
2023/10/11 04:44:59;;;;;;;;;;;;;;;31.40;nan;98731.69;5045427;28;20048;-66
2023/10/11 04:47:50;;;;;;;40.85;23.52;;;;;;;31.35;nan;98733.78;5044784;28;19924;-65
2023/10/11 04:50:18;;;;;;;40.60;20.63;;;;;;;31.62;nan;98728.72;5043332;28;20056;-66
2023/10/11 04:52:49;;;;;;;28.38;16.52;;;;;;;31.24;nan;98727.91;5044209;28;20060;-68
2023/10/11 04:55:26;;;;;;;22.38;12.95;;;;;;;31.49;nan;98731.66;5043101;28;20052;-68
2023/10/11 04:58:06;;;;;;;20.52;12.32;;;;;;;31.53;nan;98735.34;5045201;28;20052;-68
2023/10/11 05:00:44;;;;;;;21.15;11.20;;;;;;;31.59;nan;98734.88;5044719;28;20041;-67
2023/10/11 05:03:17;;;;;;;16.60;10.95;;;;;;;32.30;nan;98742.34;5044632;28;20171;-68
2023/10/11 05:05:58;;;;;;;19.75;11.95;;;;;;;32.53;nan;98736.19;5041341;28;20048;-68
2023/10/11 05:08:51;;;;;;;18.13;11.90;;;;;;;32.06;nan;98735.56;5043772;28;20059;-68
2023/10/11 05:11:39;;;;;;;18.98;11.38;;;;;;;32.41;nan;98738.88;5038938;28;20130;-68
2023/10/11 05:17:16;;;;;;;25.17;16.50;;;;;;;32.77;nan;98731.97;5044913;28;20048;-68
2023/10/11 05:19:56;;;;;;;34.55;19.58;;;;;;;32.14;nan;98738.59;5038492;28;20127;-68
2023/10/11 05:52:25;;;;;;;20.15;9.00;;;;;;;32.79;nan;98725.03;5044208;28;20057;-66
2023/10/11 05:54:59;;;;;;;16.95;8.88;;;;;;;32.80;nan;98723.84;5046139;28;20041;-67
2023/10/11 05:57:30;;;;;;;15.18;9.07;;;;;;;32.39;nan;98719.22;5028266;28;20056;-67
2023/10/11 06:00:08;;;;;;;20.50;9.88;;;;;;;32.21;nan;98720.50;5043073;28;20124;-67
2023/10/11 06:02:38;;;;;;;14.20;7.40;;;;;;;32.66;nan;98711.59;5045564;28;20132;-67
2023/10/11 06:05:10;;;;;;;12.48;7.25;;;;;;;31.62;nan;98714.22;5048343;28;20458;-67
2023/10/11 06:07:40;;;;;;;14.43;7.77;;;;;;;31.44;nan;98707.19;5042124;28;20144;-68
2023/10/11 06:10:13;;;;;;;14.50;7.75;;;;;;;31.87;nan;98702.31;5041338;28;20064;-67
2023/10/11 06:12:43;;;;;;;22.38;7.78;;;;;;;31.11;nan;98696.06;5042518;28;20055;-67
2023/10/11 06:15:17;;;;;;;10.85;6.95;;;;;;;31.59;nan;98696.53;5039312;28;20083;-67
2023/10/11 06:17:54;;;;;;;31.40;10.18;;;;;;;31.56;nan;98685.41;5041882;28;20424;-68
2023/10/11 06:22:57;;;;;;;21.98;10.23;;;;;;;31.88;nan;98678.44;5042875;28;20546;-67
2023/10/11 06:28:13;;;;;;;20.10;10.25;;;;;;;31.73;nan;98679.84;5028892;28;20051;-65
2023/10/11 06:30:46;;;;;;;19.45;10.85;;;;;;;31.74;nan;98666.94;5036543;28;20464;-65
2023/10/11 06:33:21;;;;;;;15.82;8.40;;;;;;;31.47;nan;98668.19;5037531;28;20134;-66
2023/10/11 06:35:51;;;;;;;18.92;8.73;;;;;;;31.73;nan;98665.34;5039789;28;20047;-66
2023/10/11 06:38:21;;;;;;;15.80;9.25;;;;;;;31.24;nan;98661.41;5044460;28;20507;-65
2023/10/11 06:41:36;;;;;;;13.32;8.70;;;;;;;31.32;nan;98658.63;5037980;28;20059;-66
2023/10/11 06:43:47;;;;;;;14.98;9.35;;;;;;;31.37;nan;98652.16;5040557;28;20037;-66
2023/10/11 06:46:17;;;;;;;17.75;9.68;;;;;;;31.25;nan;98650.09;5046610;28;20144;-66
2023/10/11 06:48:49;;;;;;;11.20;7.28;;;;;;;31.48;nan;98650.63;5052089;28;20129;-66
2023/10/11 06:51:19;;;;;;;18.90;7.85;;;;;;;31.58;nan;98647.56;5035194;28;20122;-63
2023/10/11 06:53:48;;;;;;;14.95;8.02;;;;;;;31.34;nan;98637.19;5049499;28;20102;-63
2023/10/11 06:56:20;;;;;;;13.95;8.88;;;;;;;30.89;nan;98628.66;5050242;28;20130;-63
2023/10/11 06:58:50;;;;;;;12.02;8.45;;;;;;;31.52;nan;98635.16;5044978;28;20052;-63
2023/10/11 07:01:19;;;;;;;14.98;8.80;;;;;;;31.65;nan;98631.38;5042287;28;20049;-63
2023/10/11 07:03:52;;;;;;;13.80;8.65;;;;;;;31.67;nan;98618.19;5049830;28;20461;-63
2023/10/11 07:06:22;;;;;;;12.52;7.82;;;;;;;31.61;nan;98612.09;5053613;28;20049;-63
2023/10/11 07:08:53;;;;;;;14.98;9.90;;;;;;;31.42;nan;98608.97;5043789;28;20056;-63
2023/10/11 07:11:41;;;;;;;11.75;8.48;;;;;;;31.62;nan;98604.69;5043910;28;20057;-63
2023/10/11 07:14:14;;;;;;;13.68;7.60;;;;;;;31.50;nan;98608.13;5041406;28;20044;-64
2023/10/11 07:16:44;;;;;;;12.18;7.63;;;;;;;31.68;nan;98599.81;5046314;28;20053;-63
2023/10/11 07:19:15;;;;;;;12.85;7.38;;;;;;;31.52;nan;98599.56;5047336;28;20049;-63
2023/10/11 07:24:33;;;;;;;11.30;7.00;;;;;;;31.60;nan;98593.28;5049555;28;20128;-62
2023/10/11 07:27:09;;;;;;;10.80;6.75;;;;;;;31.44;nan;98586.72;5052095;28;20051;-63
2023/10/11 07:29:46;;;;;;;13.60;6.75;;;;;;;31.51;nan;98589.75;5047860;28;20052;-63
2023/10/11 07:32:18;;;;;;;9.15;6.10;;;;;;;31.52;nan;98586.66;5048374;28;20059;-64
2023/10/11 07:34:48;;;;;;;9.57;6.10;;;;;;;31.38;nan;98577.91;5047416;28;20077;-63
2023/10/11 07:37:19;;;;;;;8.02;4.57;;;;;;;31.45;nan;98578.19;5049580;28;20139;-63
2023/10/11 07:39:54;;;;;;;5.95;4.75;;;;;;;31.38;nan;98575.16;5057241;28;20141;-63
2023/10/11 07:42:36;;;;;;;13.23;6.18;;;;;;;31.23;nan;98572.22;5053220;28;20045;-63
2023/10/11 07:45:08;;;;;;;9.13;5.65;;;;;;;31.29;nan;98571.66;5056451;28;20049;-63
2023/10/11 07:47:39;;;;;;;8.40;5.07;;;;;;;31.32;nan;98568.28;5033953;28;20059;-63
2023/10/11 07:50:09;;;;;;;10.52;5.35;;;;;;;31.45;nan;98564.50;5047712;28;20085;-63
2023/10/11 07:52:42;;;;;;;;;;;;;;;31.32;nan;98559.28;5057378;28;20052;-64
2023/10/11 07:55:17;;;;;;;13.02;5.70;;;;;;;31.25;nan;98556.28;5043471;28;20023;-64
2023/10/11 07:57:47;;;;;;;12.45;5.50;;;;;;;31.02;nan;98556.56;5045058;28;20048;-64
2023/10/11 08:00:17;;;;;;;11.57;4.63;;;;;;;31.12;nan;98558.09;5048916;28;20049;-64
2023/10/11 08:03:03;;;;;;;13.73;6.63;;;;;;;30.90;nan;98555.59;5045470;28;20146;-64
2023/10/11 08:05:57;;;;;;;9.45;5.75;;;;;;;30.92;nan;98556.09;5043962;28;20136;-64
2023/10/11 08:08:31;;;;;;;13.50;6.10;;;;;;;30.86;nan;98540.97;5034295;28;20494;-64
2023/10/11 08:11:06;;;;;;;11.77;5.30;;;;;;;30.83;nan;98536.19;5037963;28;20660;-64
2023/10/11 08:13:35;;;;;;;8.27;4.50;;;;;;;30.78;nan;98528.97;5031019;28;20433;-64
2023/10/11 08:16:05;;;;;;;11.10;4.90;;;;;;;30.84;nan;98530.41;5057626;28;20041;-63
2023/10/11 08:18:35;;;;;;;9.38;5.47;;;;;;;30.87;nan;98526.19;5031244;28;20052;-65
2023/10/11 08:21:05;;;;;;;11.38;5.22;;;;;;;30.84;nan;98522.19;5040663;28;20776;-63
2023/10/11 08:23:44;;;;;;;14.98;6.50;;;;;;;30.82;nan;98521.69;5047665;28;20488;-64
2023/10/11 08:26:19;;;;;;;11.63;6.28;;;;;;;30.88;nan;98520.41;5035004;28;20049;-63
2023/10/11 08:28:49;;;;;;;11.47;7.23;;;;;;;30.82;nan;98518.16;5047538;28;20824;-64
2023/10/11 08:34:03;;;;;;;18.30;8.00;;;;;;;30.80;nan;98506.75;5046825;28;20049;-64
2023/10/11 08:36:35;;;;;;;13.27;7.78;;;;;;;30.84;nan;98492.09;5038933;28;20055;-64
2023/10/11 08:39:13;;;;;;;15.18;7.80;;;;;;;30.91;nan;98492.38;5044373;28;20053;-64
2023/10/11 08:41:48;;;;;;;13.18;7.10;;;;;;;30.82;nan;98497.09;5031408;28;20428;-64
2023/10/11 08:44:20;;;;;;;11.57;7.22;;;;;;;30.82;nan;98491.63;5042137;28;20106;-64
2023/10/11 08:46:52;;;;;;;11.55;6.53;;;;;;;30.78;nan;98496.16;5052697;28;20076;-63
2023/10/11 08:49:23;;;;;;;14.82;6.78;;;;;;;30.81;nan;98494.66;5049259;28;20057;-65
2023/10/11 08:52:00;;;;;;;11.13;7.25;;;;;;;30.82;nan;98490.81;5052402;28;20572;-64
2023/10/11 08:54:30;;;;;;;10.35;7.43;;;;;;;30.85;nan;98490.94;5043752;28;20037;-64
2023/10/11 08:56:59;;;;;;;16.38;7.05;;;;;;;30.70;nan;98488.78;5043833;28;20128;-65
2023/10/11 08:59:31;;;;;;;14.10;6.20;;;;;;;30.67;nan;98490.22;5035541;28;20102;-64
2023/10/11 09:02:07;;;;;;;9.63;5.72;;;;;;;30.70;nan;98484.13;5042672;28;20045;-64
2023/10/11 09:04:57;;;;;;;13.95;6.53;;;;;;;30.66;nan;98479.66;5044043;28;20473;-64
2023/10/11 09:07:45;;;;;;;15.77;6.13;;;;;;;30.58;nan;98475.03;5045906;28;20137;-64
2023/10/11 09:10:31;;;;;;;12.77;4.47;;;;;;;30.56;nan;98478.06;5046221;28;20056;-64
2023/10/11 09:13:02;;;;;;;7.68;4.00;;;;;;;30.55;nan;98465.53;5050807;28;20464;-65
2023/10/11 09:15:44;;;;;;;15.40;4.45;;;;;;;30.53;nan;98472.47;5050914;28;20145;-65
2023/10/11 09:18:18;;;;;;;11.57;5.05;;;;;;;30.51;nan;98467.31;5050797;28;20052;-65
2023/10/11 09:21:08;;;;;;;7.45;4.30;;;;;;;30.45;nan;98470.59;5048293;28;20060;-64
2023/10/11 09:23:49;;;;;;;10.27;5.10;;;;;;;30.46;nan;98474.91;5051153;28;20049;-64
2023/10/11 09:26:37;;;;;;;12.05;5.13;;;;;;;30.49;nan;98466.88;5054530;28;20166;-64
2023/10/11 09:29:16;;;;;;;6.28;3.90;;;;;;;30.47;nan;98463.66;5049613;28;20876;-64
2023/10/11 09:31:58;;;;;;;5.90;3.67;;;;;;;30.45;nan;98465.88;5055856;28;20087;-64
2023/10/11 09:34:31;;;;;;;5.82;3.72;;;;;;;30.45;nan;98465.13;5046366;28;20040;-65
2023/10/11 09:37:02;;;;;;;10.98;4.47;;;;;;;30.45;nan;98462.38;5045519;28;20044;-64
2023/10/11 09:39:32;;;;;;;10.52;5.07;;;;;;;30.47;nan;98457.38;5048637;28;20045;-63
2023/10/11 09:42:05;;;;;;;13.10;5.10;;;;;;;30.42;nan;98455.59;5047625;28;20050;-64
2023/10/11 09:44:44;;;;;;;9.60;5.25;;;;;;;30.46;nan;98456.56;5052407;28;20059;-64
2023/10/11 09:47:17;;;;;;;8.25;4.97;;;;;;;30.33;nan;98461.09;5036841;28;20693;-64
2023/10/11 09:49:52;;;;;;;8.93;5.35;;;;;;;30.30;nan;98460.94;4692435;28;9999947;-64
2023/10/11 09:52:23;;;;;;;7.50;5.10;;;;;;;30.31;nan;98465.28;5044644;28;20056;-64
2023/10/11 09:54:54;;;;;;;19.70;6.53;;;;;;;30.29;nan;98454.69;5045994;28;20407;-64
2023/10/11 09:57:35;;;;;;;11.23;5.88;;;;;;;30.21;nan;98463.72;5050161;28;20064;-64
2023/10/11 10:00:18;;;;;;;12.70;5.18;;;;;;;30.18;nan;98466.31;5044394;28;20040;-64
2023/10/11 10:02:51;;;;;;;13.70;5.65;;;;;;;30.24;nan;98456.78;5040421;28;20046;-64
2023/10/11 10:05:22;;;;;;;10.50;5.53;;;;;;;30.15;nan;98458.75;5050634;28;20055;-64
2023/10/11 10:07:52;;;;;;;10.30;5.72;;;;;;;30.15;nan;98470.47;5045962;28;20053;-64
2023/10/11 10:10:28;;;;;;;12.55;7.25;;;;;;;30.18;nan;98464.34;5053045;28;20096;-64
2023/10/11 10:13:09;;;;;;;10.07;6.45;;;;;;;30.13;nan;98466.47;5049885;28;20060;-64
2023/10/11 10:15:57;;;;;;;8.23;6.20;;;;;;;30.03;nan;98464.91;5046015;28;20392;-64
2023/10/11 10:18:28;;;;;;;12.50;6.47;;;;;;;30.10;nan;98462.44;5049462;28;20338;-64
2023/10/11 10:21:04;;;;;;;9.55;6.40;;;;;;;30.09;nan;98460.88;5049774;28;20049;-64
2023/10/11 10:23:37;;;;;;;11.45;6.47;;;;;;;30.06;nan;98452.50;5043643;28;20147;-64
2023/10/11 10:26:07;;;;;;;14.73;7.30;;;;;;;30.07;nan;98459.56;5037216;28;20073;-64
2023/10/11 10:28:36;;;;;;;17.60;7.47;;;;;;;30.03;nan;98459.44;5042934;28;20059;-64
2023/10/11 10:31:11;;;;;;;10.73;7.57;;;;;;;29.94;nan;98457.84;5041129;28;20433;-64
2023/10/11 10:33:42;;;;;;;12.73;7.72;;;;;;;29.94;nan;98461.38;5040028;28;20151;-64
2023/10/11 10:36:18;;;;;;;12.77;8.02;;;;;;;29.89;nan;98459.63;5048674;28;20109;-64
2023/10/11 10:39:05;;;;;;;15.23;8.45;;;;;;;29.88;nan;98462.66;5056182;28;20056;-64
2023/10/11 10:41:40;;;;;;;16.52;8.90;;;;;;;29.88;nan;98457.19;5046900;28;20048;-64
2023/10/11 10:44:12;;;;;;;13.57;8.43;;;;;;;29.84;nan;98462.50;5050807;28;20041;-65
2023/10/11 10:46:50;;;;;;;15.85;9.35;;;;;;;29.80;nan;98460.72;5045783;28;20056;-62
2023/10/11 10:49:23;;;;;;;18.90;8.27;;;;;;;29.80;nan;98466.19;5047219;28;20151;-63
2023/10/11 10:51:56;;;;;;;14.82;8.95;;;;;;;29.75;nan;98458.97;5042898;28;21205;-63
2023/10/11 10:54:25;;;;;;;;;;;;;;;29.80;nan;98460.72;5051868;28;20652;-63
2023/10/11 10:56:55;;;;;;;13.23;8.55;;;;;;;29.73;nan;98466.69;5040882;28;19943;-64
2023/10/11 10:59:27;;;;;;;15.02;8.60;;;;;;;29.64;nan;98456.91;5040462;28;20052;-64
2023/10/11 11:01:57;;;;;;;13.15;8.50;;;;;;;29.71;nan;98459.94;5041628;28;20048;-64
2023/10/11 11:04:29;;;;;;;16.65;9.38;;;;;;;29.66;nan;98460.09;5047727;28;20049;-63
2023/10/11 11:06:58;;;;;;;18.55;8.48;;;;;;;29.53;nan;98455.63;5052056;28;20041;-64
2023/10/11 11:09:28;;;;;;;17.27;8.30;;;;;;;29.52;nan;98454.03;5050074;28;20104;-64
2023/10/11 11:12:14;;;;;;;11.18;8.70;;;;;;;29.51;nan;98447.78;5047329;28;20049;-63
2023/10/11 11:14:58;;;;;;;13.88;9.52;;;;;;;29.43;nan;98448.59;5045906;28;20347;-64
2023/10/11 11:17:48;;;;;;;15.77;9.77;;;;;;;29.40;nan;98446.47;5039997;28;20495;-63
2023/10/11 11:22:52;;;;;;;19.98;10.10;;;;;;;29.20;nan;98447.91;5051388;28;20048;-63
2023/10/11 11:28:16;;;;;;;12.35;9.15;;;;;;;29.13;nan;98441.28;5044410;28;20774;-63
2023/10/11 11:30:52;;;;;;;17.00;11.23;;;;;;;29.03;nan;98442.44;5042897;28;20132;-64
2023/10/11 11:33:35;;;;;;;16.98;10.80;;;;;;;29.00;nan;98443.06;5048050;28;20065;-63
2023/10/11 11:36:18;;;;;;;20.33;10.80;;;;;;;28.93;nan;98446.28;5051867;28;20052;-63
2023/10/11 11:38:48;;;;;;;15.20;9.18;;;;;;;28.96;nan;98447.53;5049964;28;20049;-64
2023/10/11 11:41:17;;;;;;;17.70;10.65;;;;;;;28.88;nan;98446.41;5053125;28;20556;-64
2023/10/11 11:43:55;;;;;;;16.17;10.27;;;;;;;28.79;nan;98440.16;5054435;28;20127;-64
2023/10/11 11:46:29;;;;;;;18.70;11.20;;;;;;;28.70;nan;98454.84;5050255;28;20048;-64
2023/10/11 11:48:59;;;;;;;17.20;10.40;;;;;;;28.66;nan;98459.31;5046880;28;20570;-63
2023/10/11 11:51:29;;;;;;;15.90;9.73;;;;;;;28.56;nan;98457.69;5032670;28;20555;-63
2023/10/11 11:53:58;;;;;;;18.10;11.07;;;;;;;28.46;nan;98463.41;5045184;28;20072;-64
2023/10/11 11:56:29;;;;;;;19.33;10.00;;;;;;;28.42;nan;98452.34;5040064;28;20132;-63
2023/10/11 11:59:00;;;;;;;19.73;11.13;;;;;;;28.36;nan;98459.06;5028563;28;20055;-63
2023/10/11 12:01:31;;;;;;;31.83;12.68;;;;;;;28.27;nan;98460.94;5034877;28;20047;-63
2023/10/11 12:04:08;;;;;;;16.75;11.57;;;;;;;28.16;nan;98454.16;5037415;28;20618;-64
2023/10/11 12:06:37;;;;;;;;;;;;;;;28.13;nan;98452.88;5035356;28;20052;-64
2023/10/11 12:09:17;;;;;;;26.98;10.90;;;;;;;28.05;nan;98456.31;5046142;28;19925;-63
2023/10/11 12:11:50;;;;;;;25.40;11.45;;;;;;;27.96;nan;98465.56;5039267;28;20052;-64
2023/10/11 12:14:22;;;;;;;32.38;11.80;;;;;;;27.87;nan;98461.97;5034650;28;20733;-63
2023/10/11 12:16:54;;;;;;;35.67;13.02;;;;;;;27.85;nan;98461.47;5034031;28;20049;-64
2023/10/11 12:19:32;;;;;;;21.33;11.13;;;;;;;27.67;nan;98468.72;5045416;28;20128;-64
2023/10/11 12:22:02;;;;;;;18.17;10.43;;;;;;;27.70;nan;98468.13;5036503;28;20045;-64
2023/10/11 12:24:32;;;;;;;20.25;10.88;;;;;;;27.57;nan;98474.44;5045279;28;20077;-64
2023/10/11 12:27:03;;;;;;;19.30;11.13;;;;;;;27.41;nan;98468.50;5037441;28;20044;-63
2023/10/11 12:29:32;;;;;;;29.75;11.80;;;;;;;27.44;nan;98467.09;5040120;28;20060;-63
2023/10/11 12:32:02;;;;;;;23.67;11.30;;;;;;;27.34;nan;98472.75;5043058;28;20059;-63
2023/10/11 12:34:32;;;;;;;26.50;12.57;;;;;;;27.36;nan;98465.88;5038720;28;20353;-63
2023/10/11 12:37:02;;;;;;;24.80;11.50;;;;;;;27.31;nan;98467.94;5041788;28;20466;-60
2023/10/11 12:39:33;;;;;;;24.45;11.82;;;;;;;27.31;nan;98476.09;5026075;28;20052;-66
2023/10/11 12:42:02;;;;;;;25.25;12.25;;;;;;;27.24;nan;98477.31;4691353;28;10000441;-66
2023/10/11 12:44:32;;;;;;;29.92;13.45;;;;;;;27.10;nan;98478.44;5029836;28;20114;-66
2023/10/11 12:47:01;;;;;;;42.83;15.63;;;;;;;27.12;nan;98473.53;5035445;28;20388;-65
2023/10/11 12:49:31;;;;;;;30.77;15.73;;;;;;;27.01;nan;98477.56;5045245;28;20055;-68
2023/10/11 12:52:05;;;;;;;31.35;15.02;;;;;;;27.10;nan;98473.81;5033277;28;20053;-66
2023/10/11 12:54:36;;;;;;;32.90;14.00;;;;;;;27.04;nan;98485.13;5040828;28;20373;-66
2023/10/11 12:57:05;;;;;;;24.08;14.45;;;;;;;27.03;nan;98478.06;5034029;28;20049;-66
2023/10/11 12:59:35;;;;;;;26.55;15.75;;;;;;;26.96;nan;98481.19;5044766;28;20148;-66
2023/10/11 13:02:08;;;;;;;33.05;15.13;;;;;;;26.97;nan;98480.09;5042385;28;20141;-66
2023/10/11 13:04:41;;;;;;;30.75;15.40;;;;;;;26.86;nan;98477.91;5064969;28;20723;-66
2023/10/11 13:07:13;;;;;;;30.20;16.02;;;;;;;26.89;nan;98485.44;5058277;28;20040;-66
2023/10/11 13:09:42;;;;;;;28.23;15.90;;;;;;;26.90;nan;98492.50;5043576;28;20053;-67
2023/10/11 13:12:17;;;;;;;34.28;16.00;;;;;;;26.68;nan;98496.72;5040428;28;20196;-66